Time;durP1;ratioP1;P1;durP2;ratioP2;P2;SDS_P1;SDS_P2;PMS_P1;PMS_P2;Temp;Humidity;BMP_temperature;BMP_pressure;BME280_temperature;BME280_humidity;BME280_pressure;Samples;Min_cycle;Max_cycle;Signal;HPM_P1;HPM_P2
2022/07/12 00:00:07;;;;;;;;;;;;;;;;;;351277;28;807;-64
2022/07/12 00:00:18;;;;;;;;;;;;;;;;;;351387;28;888;-63
2022/07/12 00:00:28;;;;;;;;;;;;;;;;;;351318;28;1054;-64
2022/07/12 00:00:38;;;;;;;;;;;;;;;;;;351269;28;889;-64
2022/07/12 00:00:48;;;;;;;;;;;;;;;;;;351385;28;786;-64
2022/07/12 00:00:58;;;;;;;;;;;;;;;;;;351381;28;1004;-64
2022/07/12 00:01:09;;;;;;;;;;;;;;;;;;351258;28;1020;-64
2022/07/12 00:01:19;;;;;;;;;;;;;;;;;;351381;28;904;-64
2022/07/12 00:01:29;;;;;;;;;;;;;;;;;;351365;28;928;-64
2022/07/12 00:01:39;;;;;;;;;;;;;;;;;;351284;28;797;-64
2022/07/12 00:01:50;;;;;;;;;;;;;;;;;;351302;28;1160;-64
2022/07/12 00:02:01;;;;;;;;;;;;;;;;;;351327;28;933;-64
2022/07/12 00:02:11;;;;;;;;;;;;;;;;;;351285;28;904;-64
2022/07/12 00:02:22;;;;;;;;;;;;;;;;;;351350;28;999;-63
2022/07/12 00:02:33;;;;;;;;;;;;;;;;;;351291;28;1905;-64
2022/07/12 00:02:43;;;;;;;;;;;;;;;;;;351311;28;855;-64
2022/07/12 00:02:53;;;;;;;;;;;;;;;;;;351378;28;960;-64
2022/07/12 00:03:03;;;;;;;;;;;;;;;;;;351337;28;897;-64
2022/07/12 00:03:13;;;;;;;;;;;;;;;;;;351148;28;1276;-64
2022/07/12 00:03:23;;;;;;;;;;;;;;;;;;351277;28;972;-63
2022/07/12 00:03:34;;;;;;;;;;;;;;;;;;351384;28;837;-64
2022/07/12 00:03:44;;;;;;;;;;;;;;;;;;351287;28;980;-64
2022/07/12 00:03:54;;;;;;;;;;;;;;;;;;351358;28;952;-64
2022/07/12 00:04:05;;;;;;;;;;;;;;;;;;351413;28;980;-64
2022/07/12 00:04:15;;;;;;;;;;;;;;;;;;351261;28;929;-64
2022/07/12 00:04:26;;;;;;;;;;;;;;;;;;351137;28;1852;-64
2022/07/12 00:04:36;;;;;;;;;;;;;;;;;;351923;28;1477;-64
2022/07/12 00:04:47;;;;;;;;;;;;;;;;;;352587;27;1335;-64
2022/07/12 00:04:57;;;;;;;;;;;;;;;;;;352943;27;1649;-64
2022/07/12 00:05:07;;;;;;;;;;;;;;;;;;351342;28;995;-63
2022/07/12 00:05:17;;;;;;;;;;;;;;;;;;351290;28;992;-64
2022/07/12 00:05:27;;;;;;;;;;;;;;;;;;351406;28;976;-63
2022/07/12 00:05:38;;;;;;;;;;;;;;;;;;351348;28;925;-64
2022/07/12 00:05:48;;;;;;;;;;;;;;;;;;351315;28;987;-64
2022/07/12 00:05:58;;;;;;;;;;;;;;;;;;351371;28;932;-64
2022/07/12 00:06:08;;;;;;;;;;;;;;;;;;351335;28;1000;-64
2022/07/12 00:06:19;;;;;;;;;;;;;;;;;;351254;28;980;-64
2022/07/12 00:06:29;;;;;;;;;;;;;;;;;;350473;28;1809;-64
2022/07/12 00:06:39;;;;;;;;;;;;;;;;;;350917;28;1595;-64
2022/07/12 00:06:49;;;;;;;;;;;;;;;;;;351244;28;788;-64
2022/07/12 00:06:59;;;;;;;;;;;;;;;;;;351377;28;941;-64
2022/07/12 00:07:10;;;;;;;;;;;;;;;;;;351343;28;1040;-64
2022/07/12 00:07:20;;;;;;;;;;;;;;;;;;351259;28;1301;-64
2022/07/12 00:07:30;;;;;;;;;;;;;;;;;;352611;28;1364;-64
2022/07/12 00:07:40;;;;;;;;;;;;;;;;;;352716;28;1375;-63
2022/07/12 00:07:50;;;;;;;;;;;;;;;;;;352728;28;921;-64
2022/07/12 00:08:01;;;;;;;;;;;;;;;;;;352760;28;972;-63
2022/07/12 00:08:11;;;;;;;;;;;;;;;;;;352778;28;493;-64
2022/07/12 00:08:21;;;;;;;;;;;;;;;;;;352724;28;857;-64
2022/07/12 00:08:31;;;;;;;;;;;;;;;;;;352746;28;912;-64
2022/07/12 00:08:41;;;;;;;;;;;;;;;;;;352745;28;916;-64
2022/07/12 00:08:52;;;;;;;;;;;;;;;;;;352745;28;921;-63
2022/07/12 00:09:02;;;;;;;;;;;;;;;;;;352741;28;1000;-64
2022/07/12 00:09:13;;;;;;;;;;;;;;;;;;352734;28;759;-64
2022/07/12 00:09:23;;;;;;;;;;;;;;;;;;352799;28;936;-64
2022/07/12 00:09:33;;;;;;;;;;;;;;;;;;352439;28;1359;-64
2022/07/12 00:09:43;;;;;;;;;;;;;;;;;;352650;28;1375;-64
2022/07/12 00:09:53;;;;;;;;;;;;;;;;;;352745;28;976;-64
2022/07/12 00:10:04;;;;;;;;;;;;;;;;;;352768;28;999;-64
2022/07/12 00:10:14;;;;;;;;;;;;;;;;;;352769;28;920;-64
2022/07/12 00:10:24;;;;;;;;;;;;;;;;;;352617;28;1021;-64
2022/07/12 00:10:34;;;;;;;;;;;;;;;;;;352711;28;929;-64
2022/07/12 00:10:45;;;;;;;;;;;;;;;;;;352765;28;822;-64
2022/07/12 00:10:55;;;;;;;;;;;;;;;;;;352707;28;975;-63
2022/07/12 00:11:05;;;;;;;;;;;;;;;;;;352739;28;961;-64
2022/07/12 00:11:15;;;;;;;;;;;;;;;;;;352680;28;928;-64
2022/07/12 00:11:25;;;;;;;;;;;;;;;;;;352702;28;1010;-64
2022/07/12 00:11:36;;;;;;;;;;;;;;;;;;352808;28;439;-64
2022/07/12 00:11:46;;;;;;;;;;;;;;;;;;352750;28;929;-64
2022/07/12 00:11:57;;;;;;;;;;;;;;;;;;352740;28;869;-64
2022/07/12 00:12:08;;;;;;;;;;;;;;;;;;352761;28;991;-64
2022/07/12 00:12:18;;;;;;;;;;;;;;;;;;352791;28;893;-64
2022/07/12 00:12:28;;;;;;;;;;;;;;;;;;352713;28;912;-64
2022/07/12 00:12:39;;;;;;;;;;;;;;;;;;352729;28;913;-64
2022/07/12 00:12:50;;;;;;;;;;;;;;;;;;352757;28;932;-64
2022/07/12 00:13:00;;;;;;;;;;;;;;;;;;352678;28;1000;-64
2022/07/12 00:13:10;;;;;;;;;;;;;;;;;;352715;28;1075;-64
2022/07/12 00:13:20;;;;;;;;;;;;;;;;;;352738;28;948;-64
2022/07/12 00:13:31;;;;;;;;;;;;;;;;;;352786;28;999;-63
2022/07/12 00:13:41;;;;;;;;;;;;;;;;;;352765;28;924;-64
2022/07/12 00:13:51;;;;;;;;;;;;;;;;;;352708;28;973;-64
2022/07/12 00:14:02;;;;;;;;;;;;;;;;;;352782;28;944;-64
2022/07/12 00:14:12;;;;;;;;;;;;;;;;;;352734;28;1131;-64
2022/07/12 00:14:22;;;;;;;;;;;;;;;;;;352762;28;1023;-64
2022/07/12 00:14:32;;;;;;;;;;;;;;;;;;352707;28;853;-64
2022/07/12 00:14:42;;;;;;;;;;;;;;;;;;352724;28;1163;-64
2022/07/12 00:14:53;;;;;;;;;;;;;;;;;;352730;28;944;-64
2022/07/12 00:15:03;;;;;;;;;;;;;;;;;;352708;28;925;-64
2022/07/12 00:15:15;;;;;;;;;;;;;;;;;;352706;28;1099;-64
2022/07/12 00:15:26;;;;;;;;;;;;;;;;;;352696;28;984;-64
2022/07/12 00:15:36;;;;;;;;;;;;;;;;;;352712;28;980;-64
2022/07/12 00:15:46;;;;;;;;;;;;;;;;;;352779;28;999;-64
2022/07/12 00:15:57;;;;;;;;;;;;;;;;;;352700;28;988;-64
2022/07/12 00:16:07;;;;;;;;;;;;;;;;;;352778;28;766;-64
2022/07/12 00:16:17;;;;;;;;;;;;;;;;;;352794;28;960;-63
2022/07/12 00:16:27;;;;;;;;;;;;;;;;;;352657;28;1060;-63
2022/07/12 00:16:38;;;;;;;;;;;;;;;;;;352724;28;979;-64
2022/07/12 00:16:48;;;;;;;;;;;;;;;;;;352683;28;925;-64
2022/07/12 00:16:58;;;;;;;;;;;;;;;;;;352740;28;979;-64
2022/07/12 00:17:08;;;;;;;;;;;;;;;;;;352780;28;995;-64
2022/07/12 00:17:19;;;;;;;;;;;;;;;;;;352704;28;1487;-64
2022/07/12 00:17:29;;;;;;;;;;;;;;;;;;352754;28;857;-64
2022/07/12 00:17:39;;;;;;;;;;;;;;;;;;352722;28;924;-64
2022/07/12 00:17:50;;;;;;;;;;;;;;;;;;352753;28;936;-63
2022/07/12 00:18:00;;;;;;;;;;;;;;;;;;352751;28;916;-64
2022/07/12 00:18:10;;;;;;;;;;;;;;;;;;352704;28;912;-64
2022/07/12 00:18:20;;;;;;;;;;;;;;;;;;352786;28;999;-64
2022/07/12 00:18:31;;;;;;;;;;;;;;;;;;352710;28;956;-64
2022/07/12 00:18:41;;;;;;;;;;;;;;;;;;351312;28;1886;-64
2022/07/12 00:18:51;;;;;;;;;;;;;;;;;;351261;28;995;-63
2022/07/12 00:19:02;;;;;;;;;;;;;;;;;;351279;28;917;-64
2022/07/12 00:19:12;;;;;;;;;;;;;;;;;;351382;28;961;-64
2022/07/12 00:19:22;;;;;;;;;;;;;;;;;;351360;28;802;-64
2022/07/12 00:19:32;;;;;;;;;;;;;;;;;;351331;28;988;-63
2022/07/12 00:19:43;;;;;;;;;;;;;;;;;;351404;28;771;-64
2022/07/12 00:19:53;;;;;;;;;;;;;;;;;;351318;28;936;-64
2022/07/12 00:20:03;;;;;;;;;;;;;;;;;;351317;28;917;-63
2022/07/12 00:20:14;;;;;;;;;;;;;;;;;;351373;28;876;-63
2022/07/12 00:20:24;;;;;;;;;;;;;;;;;;351340;28;905;-64
2022/07/12 00:20:34;;;;;;;;;;;;;;;;;;351378;28;945;-64
2022/07/12 00:20:44;;;;;;;;;;;;;;;;;;351310;28;956;-64
2022/07/12 00:20:54;;;;;;;;;;;;;;;;;;351257;28;838;-64
2022/07/12 00:21:05;;;;;;;;;;;;;;;;;;351275;28;1219;-64
2022/07/12 00:21:15;;;;;;;;;;;;;;;;;;351378;28;976;-63
2022/07/12 00:21:25;;;;;;;;;;;;;;;;;;351357;28;1019;-64
2022/07/12 00:21:35;;;;;;;;;;;;;;;;;;351287;28;992;-64
2022/07/12 00:21:45;;;;;;;;;;;;;;;;;;351339;28;921;-63
2022/07/12 00:21:56;;;;;;;;;;;;;;;;;;351328;28;983;-64
2022/07/12 00:22:06;;;;;;;;;;;;;;;;;;351382;28;914;-64
2022/07/12 00:22:16;;;;;;;;;;;;;;;;;;351334;28;941;-63
2022/07/12 00:22:28;;;;;;;;;;;;;;;;;;351450;27;1937;-64
2022/07/12 00:22:38;;;;;;;;;;;;;;;;;;352659;28;1909;-64
2022/07/12 00:22:48;;;;;;;;;;;;;;;;;;352788;28;897;-64
2022/07/12 00:22:59;;;;;;;;;;;;;;;;;;352662;28;1281;-64
2022/07/12 00:23:09;;;;;;;;;;;;;;;;;;352711;28;900;-64
2022/07/12 00:23:20;;;;;;;;;;;;;;;;;;352663;28;932;-64
2022/07/12 00:23:30;;;;;;;;;;;;;;;;;;352723;28;1018;-64
2022/07/12 00:23:40;;;;;;;;;;;;;;;;;;352755;28;920;-64
2022/07/12 00:23:50;;;;;;;;;;;;;;;;;;352695;28;951;-64
2022/07/12 00:24:00;;;;;;;;;;;;;;;;;;352733;28;963;-63
2022/07/12 00:24:11;;;;;;;;;;;;;;;;;;352672;28;1016;-64
2022/07/12 00:24:21;;;;;;;;;;;;;;;;;;352685;28;865;-64
2022/07/12 00:24:31;;;;;;;;;;;;;;;;;;352723;28;933;-64
2022/07/12 00:24:41;;;;;;;;;;;;;;;;;;352740;28;984;-64
2022/07/12 00:24:52;;;;;;;;;;;;;;;;;;352690;28;937;-64
2022/07/12 00:25:02;;;;;;;;;;;;;;;;;;352729;28;968;-64
2022/07/12 00:25:13;;;;;;;;;;;;;;;;;;352699;28;892;-64
2022/07/12 00:25:25;;;;;;;;;;;;;;;;;;352655;28;948;-64
2022/07/12 00:25:35;;;;;;;;;;;;;;;;;;352728;28;952;-64
2022/07/12 00:25:46;;;;;;;;;;;;;;;;;;352716;28;905;-64
2022/07/12 00:25:56;;;;;;;;;;;;;;;;;;352752;28;988;-64
2022/07/12 00:26:06;;;;;;;;;;;;;;;;;;352694;28;912;-64
2022/07/12 00:26:16;;;;;;;;;;;;;;;;;;352752;28;936;-64
2022/07/12 00:26:28;;;;;;;;;;;;;;;;;;352663;28;932;-64
2022/07/12 00:26:38;;;;;;;;;;;;;;;;;;352741;28;996;-63
2022/07/12 00:26:48;;;;;;;;;;;;;;;;;;352741;28;1110;-64
2022/07/12 00:26:58;;;;;;;;;;;;;;;;;;352632;28;941;-64
2022/07/12 00:27:08;;;;;;;;;;;;;;;;;;352559;28;615;-64
2022/07/12 00:27:18;;;;;;;;;;;;;;;;;;352748;28;904;-64
2022/07/12 00:27:29;;;;;;;;;;;;;;;;;;352626;28;1192;-64
2022/07/12 00:27:39;;;;;;;;;;;;;;;;;;352684;28;900;-64
2022/07/12 00:27:50;;;;;;;;;;;;;;;;;;352708;28;995;-64
2022/07/12 00:28:00;;;;;;;;;;;;;;;;;;352705;28;936;-64
2022/07/12 00:28:10;;;;;;;;;;;;;;;;;;352690;28;932;-64
2022/07/12 00:28:20;;;;;;;;;;;;;;;;;;352755;28;858;-64
2022/07/12 00:28:31;;;;;;;;;;;;;;;;;;352668;28;976;-64
2022/07/12 00:28:41;;;;;;;;;;;;;;;;;;352744;28;762;-63
2022/07/12 00:28:51;;;;;;;;;;;;;;;;;;352693;28;928;-64
2022/07/12 00:29:02;;;;;;;;;;;;;;;;;;352621;28;1032;-64
2022/07/12 00:29:12;;;;;;;;;;;;;;;;;;352672;28;842;-64
2022/07/12 00:29:22;;;;;;;;;;;;;;;;;;352736;28;964;-64
2022/07/12 00:29:32;;;;;;;;;;;;;;;;;;352681;28;925;-64
2022/07/12 00:29:42;;;;;;;;;;;;;;;;;;352685;28;1128;-63
2022/07/12 00:29:53;;;;;;;;;;;;;;;;;;352711;28;904;-64
2022/07/12 00:30:04;;;;;;;;;;;;;;;;;;352652;28;992;-64
2022/07/12 00:30:14;;;;;;;;;;;;;;;;;;352698;28;798;-64
2022/07/12 00:30:24;;;;;;;;;;;;;;;;;;352728;28;866;-64
2022/07/12 00:30:35;;;;;;;;;;;;;;;;;;352714;28;981;-64
2022/07/12 00:30:45;;;;;;;;;;;;;;;;;;352723;28;992;-64
2022/07/12 00:30:55;;;;;;;;;;;;;;;;;;352733;28;865;-64
2022/07/12 00:31:05;;;;;;;;;;;;;;;;;;352719;28;910;-64
2022/07/12 00:31:15;;;;;;;;;;;;;;;;;;352659;28;956;-64
2022/07/12 00:31:26;;;;;;;;;;;;;;;;;;352730;28;1003;-64
2022/07/12 00:31:36;;;;;;;;;;;;;;;;;;352030;28;1792;-64
2022/07/12 00:31:46;;;;;;;;;;;;;;;;;;352579;28;1358;-63
2022/07/12 00:31:57;;;;;;;;;;;;;;;;;;350827;28;1532;-64
2022/07/12 00:32:08;;;;;;;;;;;;;;;;;;351321;28;952;-64
2022/07/12 00:32:18;;;;;;;;;;;;;;;;;;351352;28;833;-64
2022/07/12 00:32:29;;;;;;;;;;;;;;;;;;351329;28;925;-64
2022/07/12 00:32:39;;;;;;;;;;;;;;;;;;351291;28;888;-64
2022/07/12 00:32:49;;;;;;;;;;;;;;;;;;351359;28;866;-64
2022/07/12 00:32:59;;;;;;;;;;;;;;;;;;351320;28;940;-64
2022/07/12 00:33:09;;;;;;;;;;;;;;;;;;351295;28;992;-64
2022/07/12 00:33:20;;;;;;;;;;;;;;;;;;351277;28;766;-64
2022/07/12 00:33:30;;;;;;;;;;;;;;;;;;351305;28;980;-64
2022/07/12 00:33:40;;;;;;;;;;;;;;;;;;351102;28;1805;-64
2022/07/12 00:33:50;;;;;;;;;;;;;;;;;;352535;28;1081;-64
2022/07/12 00:34:00;;;;;;;;;;;;;;;;;;352725;28;928;-64
2022/07/12 00:34:11;;;;;;;;;;;;;;;;;;352630;28;1015;-64
2022/07/12 00:34:21;;;;;;;;;;;;;;;;;;352680;28;1007;-63
2022/07/12 00:34:31;;;;;;;;;;;;;;;;;;352700;28;1020;-64
2022/07/12 00:34:42;;;;;;;;;;;;;;;;;;352721;28;833;-64
2022/07/12 00:34:52;;;;;;;;;;;;;;;;;;352708;28;971;-63
2022/07/12 00:35:02;;;;;;;;;;;;;;;;;;352707;28;826;-64
2022/07/12 00:35:13;;;;;;;;;;;;;;;;;;352698;28;865;-64
2022/07/12 00:35:23;;;;;;;;;;;;;;;;;;352633;28;928;-64
2022/07/12 00:35:33;;;;;;;;;;;;;;;;;;352658;28;853;-63
2022/07/12 00:35:43;;;;;;;;;;;;;;;;;;351394;28;1800;-64
2022/07/12 00:35:54;;;;;;;;;;;;;;;;;;351026;28;1591;-64
2022/07/12 00:36:04;;;;;;;;;;;;;;;;;;351309;28;944;-64
2022/07/12 00:36:15;;;;;;;;;;;;;;;;;;351267;28;916;-64
2022/07/12 00:36:25;;;;;;;;;;;;;;;;;;351278;28;949;-64
2022/07/12 00:36:35;;;;;;;;;;;;;;;;;;351282;28;1079;-64
2022/07/12 00:36:45;;;;;;;;;;;;;;;;;;351267;28;890;-64
2022/07/12 00:36:55;;;;;;;;;;;;;;;;;;351332;28;917;-63
2022/07/12 00:37:06;;;;;;;;;;;;;;;;;;351331;28;936;-63
2022/07/12 00:37:16;;;;;;;;;;;;;;;;;;351171;28;1003;-63
2022/07/12 00:37:26;;;;;;;;;;;;;;;;;;351645;28;1261;-64
2022/07/12 00:37:36;;;;;;;;;;;;;;;;;;351232;28;790;-64
2022/07/12 00:37:46;;;;;;;;;;;;;;;;;;351334;28;1746;-64
2022/07/12 00:37:56;;;;;;;;;;;;;;;;;;352172;28;1324;-64
2022/07/12 00:38:07;;;;;;;;;;;;;;;;;;352704;28;924;-64
2022/07/12 00:38:17;;;;;;;;;;;;;;;;;;352731;28;924;-64
2022/07/12 00:38:27;;;;;;;;;;;;;;;;;;352611;28;1292;-64
2022/07/12 00:38:38;;;;;;;;;;;;;;;;;;352737;28;925;-64
2022/07/12 00:38:48;;;;;;;;;;;;;;;;;;352738;28;921;-64
2022/07/12 00:38:58;;;;;;;;;;;;;;;;;;352711;28;987;-64
2022/07/12 00:39:08;;;;;;;;;;;;;;;;;;352627;28;854;-64
2022/07/12 00:39:19;;;;;;;;;;;;;;;;;;352725;28;909;-64
2022/07/12 00:39:29;;;;;;;;;;;;;;;;;;352474;28;1335;-64
2022/07/12 00:39:39;;;;;;;;;;;;;;;;;;352661;28;861;-64
2022/07/12 00:39:49;;;;;;;;;;;;;;;;;;352661;28;913;-64
2022/07/12 00:40:00;;;;;;;;;;;;;;;;;;352730;28;964;-63
2022/07/12 00:40:10;;;;;;;;;;;;;;;;;;352732;28;829;-64
2022/07/12 00:40:21;;;;;;;;;;;;;;;;;;352747;28;1000;-64
2022/07/12 00:40:31;;;;;;;;;;;;;;;;;;352606;28;972;-64
2022/07/12 00:40:41;;;;;;;;;;;;;;;;;;352761;28;802;-64
2022/07/12 00:40:51;;;;;;;;;;;;;;;;;;352715;28;963;-63
2022/07/12 00:41:01;;;;;;;;;;;;;;;;;;352742;28;798;-64
2022/07/12 00:41:12;;;;;;;;;;;;;;;;;;352683;28;928;-64
2022/07/12 00:41:22;;;;;;;;;;;;;;;;;;352751;28;991;-64
2022/07/12 00:41:32;;;;;;;;;;;;;;;;;;352686;28;1133;-64
2022/07/12 00:41:42;;;;;;;;;;;;;;;;;;351724;28;1721;-64
2022/07/12 00:41:52;;;;;;;;;;;;;;;;;;352713;28;870;-64
2022/07/12 00:42:03;;;;;;;;;;;;;;;;;;352730;28;917;-64
2022/07/12 00:42:13;;;;;;;;;;;;;;;;;;352667;28;1060;-64
2022/07/12 00:42:24;;;;;;;;;;;;;;;;;;352722;28;940;-64
2022/07/12 00:42:38;;;;;;;;;;;;;;;;;;352506;28;1964;-64
2022/07/12 00:42:48;;;;;;;;;;;;;;;;;;352747;28;1015;-64
2022/07/12 00:42:59;;;;;;;;;;;;;;;;;;352751;28;865;-64
2022/07/12 00:43:09;;;;;;;;;;;;;;;;;;352694;28;916;-64
2022/07/12 00:43:19;;;;;;;;;;;;;;;;;;352698;28;849;-64
2022/07/12 00:43:29;;;;;;;;;;;;;;;;;;352682;28;964;-64
2022/07/12 00:43:40;;;;;;;;;;;;;;;;;;352737;28;1011;-64
2022/07/12 00:43:50;;;;;;;;;;;;;;;;;;352601;28;956;-64
2022/07/12 00:44:00;;;;;;;;;;;;;;;;;;352700;28;916;-64
2022/07/12 00:44:10;;;;;;;;;;;;;;;;;;352707;28;953;-64
2022/07/12 00:44:20;;;;;;;;;;;;;;;;;;352710;28;912;-64
2022/07/12 00:44:33;;;;;;;;;;;;;;;;;;352720;28;849;-64
2022/07/12 00:44:43;;;;;;;;;;;;;;;;;;352695;28;1042;-64
2022/07/12 00:44:53;;;;;;;;;;;;;;;;;;351940;28;1825;-64
2022/07/12 00:45:04;;;;;;;;;;;;;;;;;;351993;28;1491;-64
2022/07/12 00:45:14;;;;;;;;;;;;;;;;;;352916;27;1405;-64
2022/07/12 00:45:25;;;;;;;;;;;;;;;;;;352656;28;842;-64
2022/07/12 00:45:35;;;;;;;;;;;;;;;;;;352639;28;969;-64
2022/07/12 00:45:45;;;;;;;;;;;;;;;;;;353528;27;1496;-64
2022/07/12 00:45:56;;;;;;;;;;;;;;;;;;354024;27;857;-64
2022/07/12 00:46:06;;;;;;;;;;;;;;;;;;353484;28;920;-64
2022/07/12 00:46:20;;;;;;;;;;;;;;;;;;352739;28;802;-64
2022/07/12 00:46:31;;;;;;;;;;;;;;;;;;352652;28;895;-64
2022/07/12 00:46:42;;;;;;;;;;;;;;;;;;352711;28;940;-64
2022/07/12 00:46:53;;;;;;;;;;;;;;;;;;352697;28;925;-64
2022/07/12 00:47:03;;;;;;;;;;;;;;;;;;352644;28;929;-64
2022/07/12 00:47:25;;;;;;;;;;;;;;;;;;352663;28;1012;-64
2022/07/12 00:47:37;;;;;;;;;;;;;;;;;;352684;28;917;-64
2022/07/12 00:47:49;;;;;;;;;;;;;;;;;;352714;28;786;-64
2022/07/12 00:48:00;;;;;;;;;;;;;;;;;;352604;28;960;-64
2022/07/12 00:48:10;;;;;;;;;;;;;;;;;;352694;28;937;-64
2022/07/12 00:48:20;;;;;;;;;;;;;;;;;;352728;28;983;-64
2022/07/12 00:48:32;;;;;;;;;;;;;;;;;;352722;28;924;-64
2022/07/12 00:48:42;;;;;;;;;;;;;;;;;;352667;28;901;-64
2022/07/12 00:48:53;;;;;;;;;;;;;;;;;;352657;28;777;-64
2022/07/12 00:49:04;;;;;;;;;;;;;;;;;;352778;28;774;-64
2022/07/12 00:49:15;;;;;;;;;;;;;;;;;;352004;28;1828;-64
2022/07/12 00:49:25;;;;;;;;;;;;;;;;;;352190;28;1569;-64
2022/07/12 00:49:35;;;;;;;;;;;;;;;;;;352689;28;972;-64
2022/07/12 00:49:46;;;;;;;;;;;;;;;;;;352630;28;945;-63
2022/07/12 00:49:56;;;;;;;;;;;;;;;;;;352717;28;992;-63
2022/07/12 00:50:07;;;;;;;;;;;;;;;;;;352641;28;929;-64
2022/07/12 00:50:19;;;;;;;;;;;;;;;;;;352669;28;1086;-64
2022/07/12 00:50:29;;;;;;;;;;;;;;;;;;352676;28;947;-64
2022/07/12 00:50:39;;;;;;;;;;;;;;;;;;352644;28;941;-64
2022/07/12 00:50:50;;;;;;;;;;;;;;;;;;352693;28;992;-64
2022/07/12 00:51:00;;;;;;;;;;;;;;;;;;352681;28;1376;-64
2022/07/12 00:51:10;;;;;;;;;;;;;;;;;;352670;28;1075;-65
2022/07/12 00:51:21;;;;;;;;;;;;;;;;;;352689;28;929;-64
2022/07/12 00:51:32;;;;;;;;;;;;;;;;;;352556;28;988;-64
2022/07/12 00:51:43;;;;;;;;;;;;;;;;;;352590;28;874;-64
2022/07/12 00:51:56;;;;;;;;;;;;;;;;;;352719;28;988;-64
2022/07/12 00:52:06;;;;;;;;;;;;;;;;;;352673;28;964;-64
2022/07/12 00:52:17;;;;;;;;;;;;;;;;;;352692;28;810;-64
2022/07/12 00:52:27;;;;;;;;;;;;;;;;;;352638;28;770;-64
2022/07/12 00:52:38;;;;;;;;;;;;;;;;;;352683;28;987;-64
2022/07/12 00:52:52;;;;;;;;;;;;;;;;;;351666;28;1709;-64
2022/07/12 00:53:03;;;;;;;;;;;;;;;;;;351278;28;1079;-64
2022/07/12 00:53:14;;;;;;;;;;;;;;;;;;351351;28;869;-64
2022/07/12 00:53:24;;;;;;;;;;;;;;;;;;351315;28;885;-64
2022/07/12 00:53:36;;;;;;;;;;;;;;;;;;351354;28;925;-63
2022/07/12 00:53:46;;;;;;;;;;;;;;;;;;351273;28;1031;-64
2022/07/12 00:53:58;;;;;;;;;;;;;;;;;;351337;28;850;-64
2022/07/12 00:54:09;;;;;;;;;;;;;;;;;;351280;28;821;-63
2022/07/12 00:54:20;;;;;;;;;;;;;;;;;;351274;28;996;-64
2022/07/12 00:54:30;;;;;;;;;;;;;;;;;;351336;28;758;-64
2022/07/12 00:54:40;;;;;;;;;;;;;;;;;;351278;28;1024;-64
2022/07/12 00:54:50;;;;;;;;;;;;;;;;;;351246;28;1001;-64
2022/07/12 00:55:00;;;;;;;;;;;;;;;;;;351297;28;905;-64
2022/07/12 00:55:11;;;;;;;;;;;;;;;;;;351307;28;999;-64
2022/07/12 00:55:23;;;;;;;;;;;;;;;;;;350895;28;1757;-64
2022/07/12 00:55:33;;;;;;;;;;;;;;;;;;350338;28;1785;-64
2022/07/12 00:55:43;;;;;;;;;;;;;;;;;;351282;28;922;-64
2022/07/12 00:55:57;;;;;;;;;;;;;;;;;;351341;28;822;-64
2022/07/12 00:56:07;;;;;;;;;;;;;;;;;;351300;28;837;-64
2022/07/12 00:56:17;;;;;;;;;;;;;;;;;;351239;28;928;-64
2022/07/12 00:56:27;;;;;;;;;;;;;;;;;;351386;28;763;-63
2022/07/12 00:56:38;;;;;;;;;;;;;;;;;;351296;28;925;-64
2022/07/12 00:56:48;;;;;;;;;;;;;;;;;;351199;28;980;-64
2022/07/12 00:56:59;;;;;;;;;;;;;;;;;;351297;28;944;-63
2022/07/12 00:57:09;;;;;;;;;;;;;;;;;;351332;28;913;-64
2022/07/12 00:57:19;;;;;;;;;;;;;;;;;;350887;28;1785;-64
2022/07/12 00:57:31;;;;;;;;;;;;;;;;;;351299;28;857;-64
2022/07/12 00:57:43;;;;;;;;;;;;;;;;;;351327;28;945;-64
2022/07/12 00:57:53;;;;;;;;;;;;;;;;;;351306;28;960;-63
2022/07/12 00:58:03;;;;;;;;;;;;;;;;;;351244;28;1028;-64
2022/07/12 00:58:13;;;;;;;;;;;;;;;;;;351269;28;988;-64
2022/07/12 00:58:24;;;;;;;;;;;;;;;;;;351247;28;984;-63
2022/07/12 00:58:34;;;;;;;;;;;;;;;;;;351269;28;945;-63
2022/07/12 00:58:44;;;;;;;;;;;;;;;;;;351295;28;939;-64
2022/07/12 00:58:55;;;;;;;;;;;;;;;;;;351289;28;893;-64
2022/07/12 00:59:05;;;;;;;;;;;;;;;;;;351308;28;909;-64
2022/07/12 00:59:15;;;;;;;;;;;;;;;;;;351200;28;1079;-63
2022/07/12 00:59:25;;;;;;;;;;;;;;;;;;351324;28;995;-64
2022/07/12 00:59:35;;;;;;;;;;;;;;;;;;351260;28;913;-64
2022/07/12 00:59:46;;;;;;;;;;;;;;;;;;351284;28;938;-64
2022/07/12 00:59:56;;;;;;;;;;;;;;;;;;351320;28;964;-63
2022/07/12 01:00:07;;;;;;;;;;;;;;;;;;351293;28;948;-64
2022/07/12 01:00:20;;;;;;;;;;;;;;;;;;351288;28;909;-64
2022/07/12 01:00:30;;;;;;;;;;;;;;;;;;351262;28;1013;-64
2022/07/12 01:00:41;;;;;;;;;;;;;;;;;;351267;28;841;-64
2022/07/12 01:00:51;;;;;;;;;;;;;;;;;;351337;28;932;-64
2022/07/12 01:01:01;;;;;;;;;;;;;;;;;;351325;28;774;-64
2022/07/12 01:01:12;;;;;;;;;;;;;;;;;;351285;28;942;-64
2022/07/12 01:01:22;;;;;;;;;;;;;;;;;;351298;28;973;-64
2022/07/12 01:01:33;;;;;;;;;;;;;;;;;;351302;28;1003;-64
2022/07/12 01:01:43;;;;;;;;;;;;;;;;;;351259;28;925;-64
2022/07/12 01:01:53;;;;;;;;;;;;;;;;;;351291;28;944;-64
2022/07/12 01:02:03;;;;;;;;;;;;;;;;;;351315;28;786;-64
2022/07/12 01:02:14;;;;;;;;;;;;;;;;;;351311;28;869;-64
2022/07/12 01:02:24;;;;;;;;;;;;;;;;;;351319;28;928;-63
2022/07/12 01:02:35;;;;;;;;;;;;;;;;;;351193;28;1902;-64
2022/07/12 01:02:46;;;;;;;;;;;;;;;;;;351276;28;921;-64
2022/07/12 01:02:57;;;;;;;;;;;;;;;;;;351314;28;936;-64
2022/07/12 01:03:08;;;;;;;;;;;;;;;;;;351156;28;1073;-64
2022/07/12 01:03:19;;;;;;;;;;;;;;;;;;351329;28;964;-64
2022/07/12 01:03:29;;;;;;;;;;;;;;;;;;351226;28;960;-64
2022/07/12 01:03:40;;;;;;;;;;;;;;;;;;351466;28;1805;-64
2022/07/12 01:03:51;;;;;;;;;;;;;;;;;;351395;28;1023;-63
2022/07/12 01:04:02;;;;;;;;;;;;;;;;;;351369;28;992;-64
2022/07/12 01:04:12;;;;;;;;;;;;;;;;;;351293;28;881;-64
2022/07/12 01:04:23;;;;;;;;;;;;;;;;;;351322;28;893;-63
2022/07/12 01:04:35;;;;;;;;;;;;;;;;;;351344;28;775;-64
2022/07/12 01:04:46;;;;;;;;;;;;;;;;;;351297;28;802;-64
2022/07/12 01:04:56;;;;;;;;;;;;;;;;;;351255;28;913;-63
2022/07/12 01:05:07;;;;;;;;;;;;;;;;;;351256;28;988;-64
2022/07/12 01:05:18;;;;;;;;;;;;;;;;;;351337;28;975;-64
2022/07/12 01:05:28;;;;;;;;;;;;;;;;;;351316;28;841;-64
2022/07/12 01:05:38;;;;;;;;;;;;;;;;;;351228;28;1087;-64
2022/07/12 01:05:49;;;;;;;;;;;;;;;;;;350888;28;1782;-64
2022/07/12 01:05:59;;;;;;;;;;;;;;;;;;350600;28;1610;-64
2022/07/12 01:06:10;;;;;;;;;;;;;;;;;;352695;28;924;-63
2022/07/12 01:06:20;;;;;;;;;;;;;;;;;;352690;28;866;-64
2022/07/12 01:06:31;;;;;;;;;;;;;;;;;;352662;28;1225;-64
2022/07/12 01:06:41;;;;;;;;;;;;;;;;;;352615;28;976;-64
2022/07/12 01:06:51;;;;;;;;;;;;;;;;;;352732;28;833;-64
2022/07/12 01:07:02;;;;;;;;;;;;;;;;;;352644;28;916;-64
2022/07/12 01:07:12;;;;;;;;;;;;;;;;;;352460;28;1335;-64
2022/07/12 01:07:25;;;;;;;;;;;;;;;;;;352719;28;817;-64
2022/07/12 01:07:36;;;;;;;;;;;;;;;;;;352738;28;885;-63
2022/07/12 01:07:46;;;;;;;;;;;;;;;;;;352685;28;845;-64
2022/07/12 01:07:56;;;;;;;;;;;;;;;;;;351616;28;1788;-64
2022/07/12 01:08:07;;;;;;;;;;;;;;;;;;352750;28;904;-64
2022/07/12 01:08:17;;;;;;;;;;;;;;;;;;352728;28;990;-64
2022/07/12 01:08:29;;;;;;;;;;;;;;;;;;352690;28;869;-64
2022/07/12 01:08:40;;;;;;;;;;;;;;;;;;352690;28;959;-64
2022/07/12 01:08:50;;;;;;;;;;;;;;;;;;352687;28;830;-64
2022/07/12 01:09:00;;;;;;;;;;;;;;;;;;352657;28;917;-64
2022/07/12 01:09:11;;;;;;;;;;;;;;;;;;352737;28;889;-64
2022/07/12 01:09:21;;;;;;;;;;;;;;;;;;352702;28;944;-64
2022/07/12 01:09:32;;;;;;;;;;;;;;;;;;352709;28;817;-64
2022/07/12 01:09:43;;;;;;;;;;;;;;;;;;352696;28;877;-64
2022/07/12 01:09:54;;;;;;;;;;;;;;;;;;352752;28;1003;-64
2022/07/12 01:10:04;;;;;;;;;;;;;;;;;;352616;28;911;-64
2022/07/12 01:10:15;;;;;;;;;;;;;;;;;;352653;28;924;-64
2022/07/12 01:10:26;;;;;;;;;;;;;;;;;;352662;28;963;-64
2022/07/12 01:10:37;;;;;;;;;;;;;;;;;;352648;28;970;-64
2022/07/12 01:10:48;;;;;;;;;;;;;;;;;;352690;28;928;-64
2022/07/12 01:10:59;;;;;;;;;;;;;;;;;;352682;28;982;-64
2022/07/12 01:11:09;;;;;;;;;;;;;;;;;;352647;28;852;-64
2022/07/12 01:11:20;;;;;;;;;;;;;;;;;;352710;28;999;-63
2022/07/12 01:11:30;;;;;;;;;;;;;;;;;;352666;28;912;-64
2022/07/12 01:11:41;;;;;;;;;;;;;;;;;;352650;28;967;-64
2022/07/12 01:11:51;;;;;;;;;;;;;;;;;;352142;28;1887;-64
2022/07/12 01:12:01;;;;;;;;;;;;;;;;;;352671;28;912;-63
2022/07/12 01:12:12;;;;;;;;;;;;;;;;;;352653;28;923;-64
2022/07/12 01:12:24;;;;;;;;;;;;;;;;;;352732;28;923;-63
2022/07/12 01:12:34;;;;;;;;;;;;;;;;;;352737;28;947;-63
2022/07/12 01:12:45;;;;;;;;;;;;;;;;;;352604;28;996;-64
2022/07/12 01:12:58;;;;;;;;;;;;;;;;;;352665;28;1079;-64
2022/07/12 01:13:08;;;;;;;;;;;;;;;;;;352693;28;995;-64
2022/07/12 01:13:18;;;;;;;;;;;;;;;;;;352648;28;920;-64
2022/07/12 01:13:28;;;;;;;;;;;;;;;;;;352711;28;976;-63
2022/07/12 01:13:39;;;;;;;;;;;;;;;;;;352705;28;983;-64
2022/07/12 01:13:50;;;;;;;;;;;;;;;;;;352718;28;959;-64
2022/07/12 01:14:00;;;;;;;;;;;;;;;;;;352646;28;904;-64
2022/07/12 01:14:11;;;;;;;;;;;;;;;;;;352702;28;939;-63
2022/07/12 01:14:21;;;;;;;;;;;;;;;;;;352641;28;1045;-64
2022/07/12 01:14:33;;;;;;;;;;;;;;;;;;352679;28;742;-64
2022/07/12 01:14:44;;;;;;;;;;;;;;;;;;352641;28;991;-64
2022/07/12 01:14:54;;;;;;;;;;;;;;;;;;352746;28;948;-63
2022/07/12 01:15:05;;;;;;;;;;;;;;;;;;352595;28;916;-64
2022/07/12 01:15:15;;;;;;;;;;;;;;;;;;352650;28;979;-64